sensor_id;sensor_type;location;lat;lon;timestamp;temperature;humidity
4962;DHT22;2496;52.468;13.342;2022-11-22T00:00:18;-1.20;99.90
4962;DHT22;2496;52.468;13.342;2022-11-22T00:02:45;-1.20;99.90
4962;DHT22;2496;52.468;13.342;2022-11-22T00:05:12;-1.20;99.90
4962;DHT22;2496;52.468;13.342;2022-11-22T00:07:39;-1.20;99.90
4962;DHT22;2496;52.468;13.342;2022-11-22T00:10:08;-1.20;99.90
4962;DHT22;2496;52.468;13.342;2022-11-22T00:12:36;-1.20;99.90
4962;DHT22;2496;52.468;13.342;2022-11-22T00:15:04;-1.20;99.90
4962;DHT22;2496;52.468;13.342;2022-11-22T00:17:32;-1.10;99.90
4962;DHT22;2496;52.468;13.342;2022-11-22T00:19:59;-1.10;99.90
4962;DHT22;2496;52.468;13.342;2022-11-22T00:22:26;-1.10;99.90
4962;DHT22;2496;52.468;13.342;2022-11-22T00:24:53;-1.20;99.90
4962;DHT22;2496;52.468;13.342;2022-11-22T00:27:20;-1.20;99.90
4962;DHT22;2496;52.468;13.342;2022-11-22T00:29:48;-1.20;99.90
4962;DHT22;2496;52.468;13.342;2022-11-22T00:32:15;-1.30;99.90
4962;DHT22;2496;52.468;13.342;2022-11-22T00:34:43;-1.30;99.90
4962;DHT22;2496;52.468;13.342;2022-11-22T00:37:10;-1.30;99.90
4962;DHT22;2496;52.468;13.342;2022-11-22T00:39:37;-1.40;99.90
4962;DHT22;2496;52.468;13.342;2022-11-22T00:42:04;-1.40;99.90
4962;DHT22;2496;52.468;13.342;2022-11-22T00:44:31;-1.50;99.90
4962;DHT22;2496;52.468;13.342;2022-11-22T00:46:58;-1.50;99.90
4962;DHT22;2496;52.468;13.342;2022-11-22T00:49:25;-1.50;99.90
4962;DHT22;2496;52.468;13.342;2022-11-22T00:51:54;-1.50;99.90
4962;DHT22;2496;52.468;13.342;2022-11-22T00:54:21;-1.50;99.90
4962;DHT22;2496;52.468;13.342;2022-11-22T00:56:48;-1.50;99.90
4962;DHT22;2496;52.468;13.342;2022-11-22T00:59:15;-1.50;99.90
4962;DHT22;2496;52.468;13.342;2022-11-22T01:01:41;-1.50;99.90
4962;DHT22;2496;52.468;13.342;2022-11-22T01:04:09;-1.50;99.90
4962;DHT22;2496;52.468;13.342;2022-11-22T01:06:36;-1.60;99.90
4962;DHT22;2496;52.468;13.342;2022-11-22T01:09:04;-1.60;99.90
4962;DHT22;2496;52.468;13.342;2022-11-22T01:11:31;-1.60;99.90
4962;DHT22;2496;52.468;13.342;2022-11-22T01:14:01;-1.60;99.90
4962;DHT22;2496;52.468;13.342;2022-11-22T01:16:28;-1.60;99.90
4962;DHT22;2496;52.468;13.342;2022-11-22T01:18:55;-1.70;99.90
4962;DHT22;2496;52.468;13.342;2022-11-22T01:21:22;-1.70;99.90
4962;DHT22;2496;52.468;13.342;2022-11-22T01:23:49;-1.70;99.90
4962;DHT22;2496;52.468;13.342;2022-11-22T01:26:18;-1.70;99.90
4962;DHT22;2496;52.468;13.342;2022-11-22T01:28:45;-1.70;99.90
4962;DHT22;2496;52.468;13.342;2022-11-22T01:31:12;-1.70;99.90
4962;DHT22;2496;52.468;13.342;2022-11-22T01:33:39;-1.80;99.90
4962;DHT22;2496;52.468;13.342;2022-11-22T01:36:06;-1.80;99.90
4962;DHT22;2496;52.468;13.342;2022-11-22T01:38:33;-1.80;99.90
4962;DHT22;2496;52.468;13.342;2022-11-22T01:40:59;-1.80;99.90
4962;DHT22;2496;52.468;13.342;2022-11-22T01:43:28;-1.80;99.90
4962;DHT22;2496;52.468;13.342;2022-11-22T01:45:55;-1.80;99.90
4962;DHT22;2496;52.468;13.342;2022-11-22T01:48:43;-1.80;99.90
4962;DHT22;2496;52.468;13.342;2022-11-22T01:51:17;-1.80;99.90
4962;DHT22;2496;52.468;13.342;2022-11-22T01:53:45;-1.80;99.90
4962;DHT22;2496;52.468;13.342;2022-11-22T01:56:15;-1.80;99.90
4962;DHT22;2496;52.468;13.342;2022-11-22T01:58:49;-1.80;99.90
4962;DHT22;2496;52.468;13.342;2022-11-22T02:01:17;-1.80;99.90
4962;DHT22;2496;52.468;13.342;2022-11-22T02:03:46;-1.80;99.90
4962;DHT22;2496;52.468;13.342;2022-11-22T02:06:14;-1.90;99.90
4962;DHT22;2496;52.468;13.342;2022-11-22T02:08:49;-1.90;99.90
4962;DHT22;2496;52.468;13.342;2022-11-22T02:11:19;-1.90;99.90
4962;DHT22;2496;52.468;13.342;2022-11-22T02:13:50;-1.80;99.90
4962;DHT22;2496;52.468;13.342;2022-11-22T02:16:18;-1.80;99.90
4962;DHT22;2496;52.468;13.342;2022-11-22T02:18:45;-1.80;99.90
4962;DHT22;2496;52.468;13.342;2022-11-22T02:21:12;-1.80;99.90
4962;DHT22;2496;52.468;13.342;2022-11-22T02:23:46;-1.80;99.90
4962;DHT22;2496;52.468;13.342;2022-11-22T02:26:15;-1.80;99.90
4962;DHT22;2496;52.468;13.342;2022-11-22T02:28:42;-1.70;99.90
4962;DHT22;2496;52.468;13.342;2022-11-22T02:31:37;-1.80;99.90
4962;DHT22;2496;52.468;13.342;2022-11-22T02:34:04;-1.80;99.90
4962;DHT22;2496;52.468;13.342;2022-11-22T02:36:36;-1.80;99.90
4962;DHT22;2496;52.468;13.342;2022-11-22T02:39:04;-1.80;99.90
4962;DHT22;2496;52.468;13.342;2022-11-22T02:41:34;-1.80;99.90
4962;DHT22;2496;52.468;13.342;2022-11-22T02:44:02;-1.80;99.90
4962;DHT22;2496;52.468;13.342;2022-11-22T02:46:30;-1.80;99.90
4962;DHT22;2496;52.468;13.342;2022-11-22T02:48:57;-1.80;99.90
4962;DHT22;2496;52.468;13.342;2022-11-22T02:51:24;-1.80;99.90
4962;DHT22;2496;52.468;13.342;2022-11-22T02:53:51;-1.80;99.90
4962;DHT22;2496;52.468;13.342;2022-11-22T02:56:18;-1.90;99.90
4962;DHT22;2496;52.468;13.342;2022-11-22T02:58:46;-1.90;99.90
4962;DHT22;2496;52.468;13.342;2022-11-22T03:01:13;-1.80;99.90
4962;DHT22;2496;52.468;13.342;2022-11-22T03:03:40;-1.90;99.90
4962;DHT22;2496;52.468;13.342;2022-11-22T03:06:07;-1.80;99.90
4962;DHT22;2496;52.468;13.342;2022-11-22T03:08:34;-1.80;99.90
4962;DHT22;2496;52.468;13.342;2022-11-22T03:11:01;-1.70;99.90
4962;DHT22;2496;52.468;13.342;2022-11-22T03:13:28;-1.70;99.90
4962;DHT22;2496;52.468;13.342;2022-11-22T03:15:56;-1.70;99.90
4962;DHT22;2496;52.468;13.342;2022-11-22T03:18:23;-1.80;99.90
4962;DHT22;2496;52.468;13.342;2022-11-22T03:20:50;-1.70;99.90
4962;DHT22;2496;52.468;13.342;2022-11-22T03:23:18;-1.70;99.90
4962;DHT22;2496;52.468;13.342;2022-11-22T03:25:46;-1.70;99.90
4962;DHT22;2496;52.468;13.342;2022-11-22T03:28:15;-1.70;99.90
4962;DHT22;2496;52.468;13.342;2022-11-22T03:30:45;-1.70;99.90
4962;DHT22;2496;52.468;13.342;2022-11-22T03:33:16;-1.70;99.90
4962;DHT22;2496;52.468;13.342;2022-11-22T03:35:45;-1.70;99.90
4962;DHT22;2496;52.468;13.342;2022-11-22T03:38:14;-1.60;99.90
4962;DHT22;2496;52.468;13.342;2022-11-22T03:40:46;-1.60;99.90
4962;DHT22;2496;52.468;13.342;2022-11-22T03:43:14;-1.60;99.90
4962;DHT22;2496;52.468;13.342;2022-11-22T03:45:43;-1.60;99.90
4962;DHT22;2496;52.468;13.342;2022-11-22T03:48:11;-1.70;99.90
4962;DHT22;2496;52.468;13.342;2022-11-22T03:50:41;-1.70;99.90
4962;DHT22;2496;52.468;13.342;2022-11-22T03:53:10;-1.70;99.90
4962;DHT22;2496;52.468;13.342;2022-11-22T03:55:42;-1.60;99.90
4962;DHT22;2496;52.468;13.342;2022-11-22T03:58:13;-1.60;99.90
4962;DHT22;2496;52.468;13.342;2022-11-22T04:00:41;-1.60;99.90
4962;DHT22;2496;52.468;13.342;2022-11-22T04:03:10;-1.60;99.90
4962;DHT22;2496;52.468;13.342;2022-11-22T04:05:37;-1.60;99.90
4962;DHT22;2496;52.468;13.342;2022-11-22T04:08:07;-1.60;99.90
4962;DHT22;2496;52.468;13.342;2022-11-22T04:10:36;-1.60;99.90
4962;DHT22;2496;52.468;13.342;2022-11-22T04:13:07;-1.60;99.90
4962;DHT22;2496;52.468;13.342;2022-11-22T04:15:36;-1.70;99.90
4962;DHT22;2496;52.468;13.342;2022-11-22T04:18:04;-1.70;99.90
4962;DHT22;2496;52.468;13.342;2022-11-22T04:20:34;-1.70;99.90
4962;DHT22;2496;52.468;13.342;2022-11-22T04:23:22;-1.70;99.90
4962;DHT22;2496;52.468;13.342;2022-11-22T04:25:50;-1.60;99.90
4962;DHT22;2496;52.468;13.342;2022-11-22T04:28:19;-1.60;99.90
4962;DHT22;2496;52.468;13.342;2022-11-22T04:30:48;-1.60;99.90
4962;DHT22;2496;52.468;13.342;2022-11-22T04:33:34;-1.70;99.90
4962;DHT22;2496;52.468;13.342;2022-11-22T04:36:05;-1.60;99.90
4962;DHT22;2496;52.468;13.342;2022-11-22T04:38:35;-1.50;99.90
4962;DHT22;2496;52.468;13.342;2022-11-22T04:41:05;-1.50;99.90
4962;DHT22;2496;52.468;13.342;2022-11-22T04:43:33;-1.50;99.90
4962;DHT22;2496;52.468;13.342;2022-11-22T04:46:18;-1.50;99.90
4962;DHT22;2496;52.468;13.342;2022-11-22T04:48:46;-1.50;99.90
4962;DHT22;2496;52.468;13.342;2022-11-22T04:51:14;-1.50;99.90
4962;DHT22;2496;52.468;13.342;2022-11-22T04:54:01;-1.50;99.90
4962;DHT22;2496;52.468;13.342;2022-11-22T04:56:30;-1.60;99.90
4962;DHT22;2496;52.468;13.342;2022-11-22T04:58:59;-1.50;99.90
4962;DHT22;2496;52.468;13.342;2022-11-22T05:01:27;-1.50;99.90
4962;DHT22;2496;52.468;13.342;2022-11-22T05:03:56;-1.50;99.90
4962;DHT22;2496;52.468;13.342;2022-11-22T05:06:26;-1.50;99.90
4962;DHT22;2496;52.468;13.342;2022-11-22T05:08:56;-1.50;99.90
4962;DHT22;2496;52.468;13.342;2022-11-22T05:11:28;-1.40;99.90
4962;DHT22;2496;52.468;13.342;2022-11-22T05:13:58;-1.40;99.90
4962;DHT22;2496;52.468;13.342;2022-11-22T05:16:26;-1.40;99.90
4962;DHT22;2496;52.468;13.342;2022-11-22T05:18:54;-1.40;99.90
4962;DHT22;2496;52.468;13.342;2022-11-22T05:21:26;-1.30;99.90
4962;DHT22;2496;52.468;13.342;2022-11-22T05:24:01;-1.40;99.90
4962;DHT22;2496;52.468;13.342;2022-11-22T05:26:32;-1.40;99.90
4962;DHT22;2496;52.468;13.342;2022-11-22T05:29:05;-1.50;99.90
4962;DHT22;2496;52.468;13.342;2022-11-22T05:31:37;-1.50;99.90
4962;DHT22;2496;52.468;13.342;2022-11-22T05:34:08;-1.50;99.90
4962;DHT22;2496;52.468;13.342;2022-11-22T05:36:40;-1.40;99.90
4962;DHT22;2496;52.468;13.342;2022-11-22T05:39:09;-1.50;99.90
4962;DHT22;2496;52.468;13.342;2022-11-22T05:41:38;-1.50;99.90
4962;DHT22;2496;52.468;13.342;2022-11-22T05:44:20;-1.50;99.90
4962;DHT22;2496;52.468;13.342;2022-11-22T05:46:49;-1.40;99.90
4962;DHT22;2496;52.468;13.342;2022-11-22T05:49:22;-1.40;99.90
4962;DHT22;2496;52.468;13.342;2022-11-22T05:51:55;-1.40;99.90
4962;DHT22;2496;52.468;13.342;2022-11-22T05:54:24;-1.40;99.90
4962;DHT22;2496;52.468;13.342;2022-11-22T05:56:54;-1.40;99.90
4962;DHT22;2496;52.468;13.342;2022-11-22T05:59:23;-1.50;99.90
4962;DHT22;2496;52.468;13.342;2022-11-22T06:01:51;-1.40;99.90
4962;DHT22;2496;52.468;13.342;2022-11-22T06:04:18;-1.30;99.90
4962;DHT22;2496;52.468;13.342;2022-11-22T06:06:45;-1.40;99.90
4962;DHT22;2496;52.468;13.342;2022-11-22T06:09:14;-1.40;99.90
4962;DHT22;2496;52.468;13.342;2022-11-22T06:11:43;-1.40;99.90
4962;DHT22;2496;52.468;13.342;2022-11-22T06:14:15;-1.40;99.90
4962;DHT22;2496;52.468;13.342;2022-11-22T06:16:43;-1.30;99.90
4962;DHT22;2496;52.468;13.342;2022-11-22T06:19:10;-1.30;99.90
4962;DHT22;2496;52.468;13.342;2022-11-22T06:21:37;-1.20;99.90
4962;DHT22;2496;52.468;13.342;2022-11-22T06:24:05;-1.20;99.90
4962;DHT22;2496;52.468;13.342;2022-11-22T06:26:32;-1.30;99.90
4962;DHT22;2496;52.468;13.342;2022-11-22T06:28:59;-1.30;99.90
4962;DHT22;2496;52.468;13.342;2022-11-22T06:31:31;-1.30;99.90
4962;DHT22;2496;52.468;13.342;2022-11-22T06:33:59;-1.30;99.90
4962;DHT22;2496;52.468;13.342;2022-11-22T06:36:28;-1.30;99.90
4962;DHT22;2496;52.468;13.342;2022-11-22T06:38:55;-1.20;99.90
4962;DHT22;2496;52.468;13.342;2022-11-22T06:41:24;-1.20;99.90
4962;DHT22;2496;52.468;13.342;2022-11-22T06:43:53;-1.20;99.90
4962;DHT22;2496;52.468;13.342;2022-11-22T06:46:21;-1.20;99.90
4962;DHT22;2496;52.468;13.342;2022-11-22T06:48:50;-1.20;99.90
4962;DHT22;2496;52.468;13.342;2022-11-22T06:51:19;-1.20;99.90
4962;DHT22;2496;52.468;13.342;2022-11-22T06:53:47;-1.20;99.90
4962;DHT22;2496;52.468;13.342;2022-11-22T06:56:16;-1.10;99.90
4962;DHT22;2496;52.468;13.342;2022-11-22T06:58:44;-1.10;99.90
4962;DHT22;2496;52.468;13.342;2022-11-22T07:01:13;-1.20;99.90
4962;DHT22;2496;52.468;13.342;2022-11-22T07:03:41;-1.20;99.90
4962;DHT22;2496;52.468;13.342;2022-11-22T07:06:11;-1.10;99.90
4962;DHT22;2496;52.468;13.342;2022-11-22T07:08:39;-1.10;99.90
4962;DHT22;2496;52.468;13.342;2022-11-22T07:11:08;-1.10;99.90
4962;DHT22;2496;52.468;13.342;2022-11-22T07:13:36;-1.10;99.90
4962;DHT22;2496;52.468;13.342;2022-11-22T07:16:04;-1.00;99.90
4962;DHT22;2496;52.468;13.342;2022-11-22T07:18:32;-1.00;99.90
4962;DHT22;2496;52.468;13.342;2022-11-22T07:20:59;-1.00;99.90
4962;DHT22;2496;52.468;13.342;2022-11-22T07:23:28;-1.00;99.90
4962;DHT22;2496;52.468;13.342;2022-11-22T07:25:56;-0.90;99.90
4962;DHT22;2496;52.468;13.342;2022-11-22T07:28:23;-1.00;99.90
4962;DHT22;2496;52.468;13.342;2022-11-22T07:30:50;-1.00;99.90
4962;DHT22;2496;52.468;13.342;2022-11-22T07:33:17;-1.00;99.90
4962;DHT22;2496;52.468;13.342;2022-11-22T07:35:44;-1.00;99.90
4962;DHT22;2496;52.468;13.342;2022-11-22T07:38:11;-1.00;99.90
4962;DHT22;2496;52.468;13.342;2022-11-22T07:40:40;-0.90;99.90
4962;DHT22;2496;52.468;13.342;2022-11-22T07:43:07;-0.90;99.90
4962;DHT22;2496;52.468;13.342;2022-11-22T07:45:34;-0.90;99.90
4962;DHT22;2496;52.468;13.342;2022-11-22T07:48:01;-0.90;99.90
4962;DHT22;2496;52.468;13.342;2022-11-22T07:50:28;-0.90;99.90
4962;DHT22;2496;52.468;13.342;2022-11-22T07:52:56;-0.90;99.90
4962;DHT22;2496;52.468;13.342;2022-11-22T07:55:24;-0.80;99.90
4962;DHT22;2496;52.468;13.342;2022-11-22T07:57:53;-0.70;99.90
4962;DHT22;2496;52.468;13.342;2022-11-22T08:00:20;-0.70;99.90
4962;DHT22;2496;52.468;13.342;2022-11-22T08:02:47;-0.70;99.90
4962;DHT22;2496;52.468;13.342;2022-11-22T08:05:14;-0.70;99.90
4962;DHT22;2496;52.468;13.342;2022-11-22T08:07:45;-0.70;99.90
4962;DHT22;2496;52.468;13.342;2022-11-22T08:10:13;-0.70;99.90
4962;DHT22;2496;52.468;13.342;2022-11-22T08:12:40;-0.60;99.90
4962;DHT22;2496;52.468;13.342;2022-11-22T08:15:10;-0.60;99.90
4962;DHT22;2496;52.468;13.342;2022-11-22T08:17:37;-0.60;99.90
4962;DHT22;2496;52.468;13.342;2022-11-22T08:20:06;-0.60;99.90
4962;DHT22;2496;52.468;13.342;2022-11-22T08:22:34;-0.60;99.90
4962;DHT22;2496;52.468;13.342;2022-11-22T08:25:02;-0.60;99.90
4962;DHT22;2496;52.468;13.342;2022-11-22T08:27:29;-0.60;99.90
4962;DHT22;2496;52.468;13.342;2022-11-22T08:29:56;-0.60;99.90
4962;DHT22;2496;52.468;13.342;2022-11-22T08:32:24;-0.60;99.90
4962;DHT22;2496;52.468;13.342;2022-11-22T08:34:51;-0.60;99.90
4962;DHT22;2496;52.468;13.342;2022-11-22T08:37:18;-0.60;99.90
4962;DHT22;2496;52.468;13.342;2022-11-22T08:39:45;-0.60;99.90
4962;DHT22;2496;52.468;13.342;2022-11-22T08:42:12;-0.60;99.90
4962;DHT22;2496;52.468;13.342;2022-11-22T08:44:39;-0.70;99.90
4962;DHT22;2496;52.468;13.342;2022-11-22T08:47:06;-0.70;99.90
4962;DHT22;2496;52.468;13.342;2022-11-22T08:49:34;-0.60;99.90
4962;DHT22;2496;52.468;13.342;2022-11-22T08:52:01;-0.60;99.90
4962;DHT22;2496;52.468;13.342;2022-11-22T08:54:28;-0.50;99.90
4962;DHT22;2496;52.468;13.342;2022-11-22T08:56:55;-0.60;99.90
4962;DHT22;2496;52.468;13.342;2022-11-22T08:59:22;-0.50;99.90
4962;DHT22;2496;52.468;13.342;2022-11-22T09:01:49;-0.50;99.90
4962;DHT22;2496;52.468;13.342;2022-11-22T09:04:16;-0.50;99.90
4962;DHT22;2496;52.468;13.342;2022-11-22T09:06:45;-0.40;99.90
4962;DHT22;2496;52.468;13.342;2022-11-22T09:09:12;-0.30;99.90
4962;DHT22;2496;52.468;13.342;2022-11-22T09:11:39;-0.30;99.90
4962;DHT22;2496;52.468;13.342;2022-11-22T09:14:06;-0.30;99.90
4962;DHT22;2496;52.468;13.342;2022-11-22T09:16:33;-0.30;99.90
4962;DHT22;2496;52.468;13.342;2022-11-22T09:19:00;-0.20;99.90
4962;DHT22;2496;52.468;13.342;2022-11-22T09:21:26;-0.30;99.90
4962;DHT22;2496;52.468;13.342;2022-11-22T09:23:55;-0.30;99.90
4962;DHT22;2496;52.468;13.342;2022-11-22T09:26:23;-0.20;99.90
4962;DHT22;2496;52.468;13.342;2022-11-22T09:28:50;-0.20;99.90
4962;DHT22;2496;52.468;13.342;2022-11-22T09:31:19;-0.10;99.90
4962;DHT22;2496;52.468;13.342;2022-11-22T09:33:46;0.00;99.90
4962;DHT22;2496;52.468;13.342;2022-11-22T09:36:15;-0.10;99.90
4962;DHT22;2496;52.468;13.342;2022-11-22T09:38:42;-0.10;99.90
4962;DHT22;2496;52.468;13.342;2022-11-22T09:41:20;0.00;99.90
4962;DHT22;2496;52.468;13.342;2022-11-22T09:43:56;0.00;99.90
4962;DHT22;2496;52.468;13.342;2022-11-22T09:46:34;0.00;99.90
4962;DHT22;2496;52.468;13.342;2022-11-22T09:49:27;0.00;99.90
4962;DHT22;2496;52.468;13.342;2022-11-22T09:52:02;0.00;99.90
4962;DHT22;2496;52.468;13.342;2022-11-22T09:54:37;0.10;99.90
4962;DHT22;2496;52.468;13.342;2022-11-22T09:57:12;0.10;99.90
4962;DHT22;2496;52.468;13.342;2022-11-22T09:59:44;0.20;99.90
4962;DHT22;2496;52.468;13.342;2022-11-22T10:02:16;0.20;99.90
4962;DHT22;2496;52.468;13.342;2022-11-22T10:04:49;0.20;99.90
4962;DHT22;2496;52.468;13.342;2022-11-22T10:07:21;0.20;99.90
4962;DHT22;2496;52.468;13.342;2022-11-22T10:09:53;0.20;99.90
4962;DHT22;2496;52.468;13.342;2022-11-22T10:12:26;0.20;99.90
4962;DHT22;2496;52.468;13.342;2022-11-22T10:15:02;0.20;99.90
4962;DHT22;2496;52.468;13.342;2022-11-22T10:17:44;0.30;99.90
4962;DHT22;2496;52.468;13.342;2022-11-22T10:20:15;0.30;99.90
4962;DHT22;2496;52.468;13.342;2022-11-22T10:22:42;0.20;99.90
4962;DHT22;2496;52.468;13.342;2022-11-22T10:25:16;0.40;99.90
4962;DHT22;2496;52.468;13.342;2022-11-22T10:27:47;0.40;99.90
4962;DHT22;2496;52.468;13.342;2022-11-22T10:30:17;0.40;99.90
4962;DHT22;2496;52.468;13.342;2022-11-22T10:32:54;0.50;99.90
4962;DHT22;2496;52.468;13.342;2022-11-22T10:35:35;0.50;99.90
4962;DHT22;2496;52.468;13.342;2022-11-22T10:38:18;0.50;99.90
4962;DHT22;2496;52.468;13.342;2022-11-22T10:40:58;0.50;99.90
4962;DHT22;2496;52.468;13.342;2022-11-22T10:43:35;0.50;99.90
4962;DHT22;2496;52.468;13.342;2022-11-22T10:46:09;0.50;99.90
4962;DHT22;2496;52.468;13.342;2022-11-22T10:48:42;0.50;99.90
4962;DHT22;2496;52.468;13.342;2022-11-22T10:51:16;0.50;99.90
4962;DHT22;2496;52.468;13.342;2022-11-22T10:53:57;0.60;99.90
4962;DHT22;2496;52.468;13.342;2022-11-22T10:56:29;0.60;99.90
4962;DHT22;2496;52.468;13.342;2022-11-22T10:59:13;0.60;99.90
4962;DHT22;2496;52.468;13.342;2022-11-22T11:01:48;0.70;99.90
4962;DHT22;2496;52.468;13.342;2022-11-22T11:04:18;0.70;99.90
4962;DHT22;2496;52.468;13.342;2022-11-22T11:06:48;0.80;99.90
4962;DHT22;2496;52.468;13.342;2022-11-22T11:09:20;0.80;99.90
4962;DHT22;2496;52.468;13.342;2022-11-22T11:11:49;0.90;99.90
4962;DHT22;2496;52.468;13.342;2022-11-22T11:14:25;0.80;99.90
4962;DHT22;2496;52.468;13.342;2022-11-22T11:16:53;0.80;99.90
4962;DHT22;2496;52.468;13.342;2022-11-22T11:19:22;0.90;99.90
4962;DHT22;2496;52.468;13.342;2022-11-22T11:21:56;0.90;99.90
4962;DHT22;2496;52.468;13.342;2022-11-22T11:24:27;1.00;99.90
4962;DHT22;2496;52.468;13.342;2022-11-22T11:26:57;1.00;99.90
4962;DHT22;2496;52.468;13.342;2022-11-22T11:29:37;0.90;99.90
4962;DHT22;2496;52.468;13.342;2022-11-22T11:32:10;0.90;99.90
4962;DHT22;2496;52.468;13.342;2022-11-22T11:34:41;1.00;99.90
4962;DHT22;2496;52.468;13.342;2022-11-22T11:37:21;1.00;99.90
4962;DHT22;2496;52.468;13.342;2022-11-22T11:39:49;1.10;99.90
4962;DHT22;2496;52.468;13.342;2022-11-22T11:42:30;1.10;99.90
4962;DHT22;2496;52.468;13.342;2022-11-22T11:45:26;1.10;99.90
4962;DHT22;2496;52.468;13.342;2022-11-22T11:47:54;1.10;99.90
4962;DHT22;2496;52.468;13.342;2022-11-22T11:50:22;1.10;99.90
4962;DHT22;2496;52.468;13.342;2022-11-22T11:52:50;1.10;99.90
4962;DHT22;2496;52.468;13.342;2022-11-22T11:55:18;1.20;99.90
4962;DHT22;2496;52.468;13.342;2022-11-22T11:57:45;1.20;99.90
4962;DHT22;2496;52.468;13.342;2022-11-22T12:00:24;1.20;99.90
4962;DHT22;2496;52.468;13.342;2022-11-22T12:02:57;1.30;99.90
4962;DHT22;2496;52.468;13.342;2022-11-22T12:05:27;1.30;99.90
4962;DHT22;2496;52.468;13.342;2022-11-22T12:07:54;1.30;99.90
4962;DHT22;2496;52.468;13.342;2022-11-22T12:10:34;1.30;99.90
4962;DHT22;2496;52.468;13.342;2022-11-22T12:13:10;1.30;99.90
4962;DHT22;2496;52.468;13.342;2022-11-22T12:15:50;1.40;99.90
4962;DHT22;2496;52.468;13.342;2022-11-22T12:18:36;1.40;99.90
4962;DHT22;2496;52.468;13.342;2022-11-22T12:21:12;1.40;99.90
4962;DHT22;2496;52.468;13.342;2022-11-22T12:23:46;1.40;99.90
4962;DHT22;2496;52.468;13.342;2022-11-22T12:26:14;1.40;99.90
4962;DHT22;2496;52.468;13.342;2022-11-22T12:28:41;1.40;99.90
4962;DHT22;2496;52.468;13.342;2022-11-22T12:31:15;1.40;99.90
4962;DHT22;2496;52.468;13.342;2022-11-22T12:33:50;1.40;99.90
4962;DHT22;2496;52.468;13.342;2022-11-22T12:36:22;1.40;99.90
4962;DHT22;2496;52.468;13.342;2022-11-22T12:38:51;1.40;99.90
4962;DHT22;2496;52.468;13.342;2022-11-22T12:41:21;1.50;99.90
4962;DHT22;2496;52.468;13.342;2022-11-22T12:43:53;1.50;99.90
4962;DHT22;2496;52.468;13.342;2022-11-22T12:46:25;1.60;99.90
4962;DHT22;2496;52.468;13.342;2022-11-22T12:48:55;1.50;99.90
4962;DHT22;2496;52.468;13.342;2022-11-22T12:51:29;1.50;99.90
4962;DHT22;2496;52.468;13.342;2022-11-22T12:54:04;1.60;99.90
4962;DHT22;2496;52.468;13.342;2022-11-22T12:56:40;1.60;99.90
4962;DHT22;2496;52.468;13.342;2022-11-22T12:59:18;1.70;99.90
4962;DHT22;2496;52.468;13.342;2022-11-22T13:01:53;1.70;99.90
4962;DHT22;2496;52.468;13.342;2022-11-22T13:04:29;1.70;99.90
4962;DHT22;2496;52.468;13.342;2022-11-22T13:07:02;1.70;99.90
4962;DHT22;2496;52.468;13.342;2022-11-22T13:09:34;1.70;99.90
4962;DHT22;2496;52.468;13.342;2022-11-22T13:12:04;1.70;99.90
4962;DHT22;2496;52.468;13.342;2022-11-22T13:14:35;1.70;99.90
4962;DHT22;2496;52.468;13.342;2022-11-22T13:17:06;1.70;99.90
4962;DHT22;2496;52.468;13.342;2022-11-22T13:19:39;1.70;99.90
4962;DHT22;2496;52.468;13.342;2022-11-22T13:22:13;1.60;99.90
4962;DHT22;2496;52.468;13.342;2022-11-22T13:24:52;1.60;99.90
4962;DHT22;2496;52.468;13.342;2022-11-22T13:27:27;1.60;99.90
4962;DHT22;2496;52.468;13.342;2022-11-22T13:29:57;1.70;99.90
4962;DHT22;2496;52.468;13.342;2022-11-22T13:32:29;1.70;99.90
4962;DHT22;2496;52.468;13.342;2022-11-22T13:35:04;1.60;99.90
4962;DHT22;2496;52.468;13.342;2022-11-22T13:37:36;1.70;99.90
4962;DHT22;2496;52.468;13.342;2022-11-22T13:40:10;1.70;99.90
4962;DHT22;2496;52.468;13.342;2022-11-22T13:42:43;1.80;99.90
4962;DHT22;2496;52.468;13.342;2022-11-22T13:45:21;1.80;99.90
4962;DHT22;2496;52.468;13.342;2022-11-22T13:47:49;1.80;99.90
4962;DHT22;2496;52.468;13.342;2022-11-22T13:53:33;1.80;99.90
4962;DHT22;2496;52.468;13.342;2022-11-22T13:59:14;1.80;99.90
4962;DHT22;2496;52.468;13.342;2022-11-22T14:01:57;1.80;99.90
4962;DHT22;2496;52.468;13.342;2022-11-22T14:04:42;1.80;99.90
4962;DHT22;2496;52.468;13.342;2022-11-22T14:07:31;1.90;99.90
4962;DHT22;2496;52.468;13.342;2022-11-22T14:10:01;1.80;99.90
4962;DHT22;2496;52.468;13.342;2022-11-22T14:12:43;1.80;99.90
4962;DHT22;2496;52.468;13.342;2022-11-22T14:15:40;1.80;99.90
4962;DHT22;2496;52.468;13.342;2022-11-22T14:18:44;1.80;99.90
4962;DHT22;2496;52.468;13.342;2022-11-22T14:21:20;1.80;99.90
4962;DHT22;2496;52.468;13.342;2022-11-22T14:23:59;1.80;99.90
4962;DHT22;2496;52.468;13.342;2022-11-22T14:26:34;1.80;99.90
4962;DHT22;2496;52.468;13.342;2022-11-22T14:32:13;1.90;99.90
4962;DHT22;2496;52.468;13.342;2022-11-22T14:35:18;1.90;99.90
4962;DHT22;2496;52.468;13.342;2022-11-22T14:37:57;2.00;99.90
4962;DHT22;2496;52.468;13.342;2022-11-22T14:40:33;2.00;99.90
4962;DHT22;2496;52.468;13.342;2022-11-22T14:45:51;1.90;99.90
4962;DHT22;2496;52.468;13.342;2022-11-22T14:48:20;1.90;99.90
4962;DHT22;2496;52.468;13.342;2022-11-22T14:50:50;1.90;99.90
4962;DHT22;2496;52.468;13.342;2022-11-22T14:53:29;1.90;99.90
4962;DHT22;2496;52.468;13.342;2022-11-22T14:56:04;1.90;99.90
4962;DHT22;2496;52.468;13.342;2022-11-22T14:58:37;1.90;99.90
4962;DHT22;2496;52.468;13.342;2022-11-22T15:01:21;1.90;99.90
4962;DHT22;2496;52.468;13.342;2022-11-22T15:04:11;2.00;99.90
4962;DHT22;2496;52.468;13.342;2022-11-22T15:06:53;2.00;99.90
4962;DHT22;2496;52.468;13.342;2022-11-22T15:09:42;2.00;99.90
4962;DHT22;2496;52.468;13.342;2022-11-22T15:12:33;2.00;99.90
4962;DHT22;2496;52.468;13.342;2022-11-22T15:15:28;1.90;99.90
4962;DHT22;2496;52.468;13.342;2022-11-22T15:18:07;2.00;99.90
4962;DHT22;2496;52.468;13.342;2022-11-22T15:20:40;2.00;99.90
4962;DHT22;2496;52.468;13.342;2022-11-22T15:23:13;2.00;99.90
4962;DHT22;2496;52.468;13.342;2022-11-22T15:25:42;2.00;99.90
4962;DHT22;2496;52.468;13.342;2022-11-22T15:28:15;2.00;99.90
4962;DHT22;2496;52.468;13.342;2022-11-22T15:30:43;2.00;99.90
4962;DHT22;2496;52.468;13.342;2022-11-22T15:33:31;1.90;99.90
4962;DHT22;2496;52.468;13.342;2022-11-22T15:36:12;1.90;99.90
4962;DHT22;2496;52.468;13.342;2022-11-22T15:38:42;1.90;99.90
4962;DHT22;2496;52.468;13.342;2022-11-22T15:41:16;1.90;99.90
4962;DHT22;2496;52.468;13.342;2022-11-22T15:43:44;1.90;99.90
4962;DHT22;2496;52.468;13.342;2022-11-22T15:46:12;2.00;99.90
4962;DHT22;2496;52.468;13.342;2022-11-22T15:48:42;1.90;99.90
4962;DHT22;2496;52.468;13.342;2022-11-22T15:51:22;1.90;99.90
4962;DHT22;2496;52.468;13.342;2022-11-22T15:54:12;2.00;99.90
4962;DHT22;2496;52.468;13.342;2022-11-22T15:56:47;2.00;99.90
4962;DHT22;2496;52.468;13.342;2022-11-22T15:59:23;2.00;99.90
4962;DHT22;2496;52.468;13.342;2022-11-22T16:01:53;1.90;99.90
4962;DHT22;2496;52.468;13.342;2022-11-22T16:04:22;1.90;99.90
4962;DHT22;2496;52.468;13.342;2022-11-22T16:06:52;2.00;99.90
4962;DHT22;2496;52.468;13.342;2022-11-22T16:09:28;1.90;99.90
4962;DHT22;2496;52.468;13.342;2022-11-22T16:11:59;2.00;99.90
4962;DHT22;2496;52.468;13.342;2022-11-22T16:14:41;2.00;99.90
4962;DHT22;2496;52.468;13.342;2022-11-22T16:17:28;1.90;99.90
4962;DHT22;2496;52.468;13.342;2022-11-22T16:20:33;1.90;99.90
4962;DHT22;2496;52.468;13.342;2022-11-22T16:23:30;1.90;99.90
4962;DHT22;2496;52.468;13.342;2022-11-22T16:26:11;2.00;99.90
4962;DHT22;2496;52.468;13.342;2022-11-22T16:28:40;1.90;99.90
4962;DHT22;2496;52.468;13.342;2022-11-22T16:31:16;1.90;99.90